Time;durP1;ratioP1;P1;durP2;ratioP2;P2;SDS_P1;SDS_P2;PMS_P1;PMS_P2;Temp;Humidity;BMP_temperature;BMP_pressure;BME280_temperature;BME280_humidity;BME280_pressure;Samples;Min_cycle;Max_cycle;Signal;HPM_P1;HPM_P2
2023/10/17 00:01:55;;;;;;;3.35;1.70;;;;;;;7.27;63.89;98074.84;4847908;29;20798;-88
2023/10/17 00:06:50;;;;;;;;;;;;;;;7.36;63.82;98076.78;4868277;29;20057;-86
2023/10/17 00:09:21;;;;;;;3.25;1.55;;;;;;;7.33;63.53;98080.94;4835823;29;19924;-87
2023/10/17 00:14:25;;;;;;;7.93;1.80;;;;;;;7.11;63.62;98051.22;4856956;29;20049;-85
2023/10/17 00:16:57;;;;;;;3.10;1.85;;;;;;;7.09;64.47;98043.41;4868900;29;20047;-91
2023/10/17 00:19:31;;;;;;;4.78;2.00;;;;;;;7.13;64.79;98043.56;4867702;29;20083;-91
2023/10/17 00:22:03;;;;;;;6.72;2.10;;;;;;;7.21;64.62;98061.75;4834531;29;20052;-87
2023/10/17 00:24:29;;;;;;;4.30;1.77;;;;;;;7.06;63.51;98061.13;4830323;29;20076;-86
2023/10/17 00:26:55;;;;;;;4.95;2.25;;;;;;;7.17;63.32;98077.91;4841045;29;20102;-85
2023/10/17 00:29:22;;;;;;;7.57;2.15;;;;;;;7.05;64.12;98058.72;4866463;29;20105;-93
2023/10/17 00:31:55;;;;;;;4.68;1.90;;;;;;;7.00;64.65;98039.88;4864642;29;20049;-94
2023/10/17 00:34:24;;;;;;;4.15;1.77;;;;;;;7.25;64.41;98084.44;4834319;29;20460;-86
2023/10/17 00:36:52;;;;;;;4.68;1.80;;;;;;;7.15;64.65;98063.84;4846551;29;20049;-86
2023/10/17 00:39:29;;;;;;;3.95;1.85;;;;;;;7.32;65.15;98078.53;4832779;29;20033;-88
2023/10/17 00:44:33;;;;;;;6.80;2.28;;;;;;;7.43;64.93;98079.81;4848832;29;20044;-86
2023/10/17 00:47:00;;;;;;;7.53;3.10;;;;;;;7.35;65.30;98086.03;4847834;29;20057;-86
2023/10/17 00:49:33;;;;;;;9.65;2.97;;;;;;;7.16;64.78;98056.50;4883515;29;20132;-88
2023/10/17 00:52:15;;;;;;;6.38;2.45;;;;;;;7.20;64.74;98077.25;4873301;29;20113;-86
2023/10/17 00:54:43;;;;;;;5.10;2.67;;;;;;;7.16;65.22;98067.38;4886776;29;20141;-91
2023/10/17 00:57:09;;;;;;;7.38;2.67;;;;;;;7.25;65.45;98084.44;4886393;29;20072;-89
2023/10/17 00:59:36;;;;;;;5.47;2.35;;;;;;;7.14;65.27;98067.66;4886476;29;20083;-89
2023/10/17 01:02:07;;;;;;;5.55;2.65;;;;;;;6.94;65.33;98043.88;4885840;29;20060;-87
2023/10/17 01:04:44;;;;;;;6.10;2.85;;;;;;;7.10;65.42;98071.38;4886524;29;20040;-89
2023/10/17 01:07:12;;;;;;;6.07;2.20;;;;;;;7.10;65.26;98083.03;4883267;29;20533;-87
2023/10/17 01:09:39;;;;;;;9.60;2.50;;;;;;;6.79;64.63;98032.38;4884470;29;20049;-93
2023/10/17 01:12:11;;;;;;;8.40;2.55;;;;;;;6.88;65.32;98045.16;4869130;29;20092;-94
2023/10/17 01:14:38;;;;;;;4.68;2.20;;;;;;;7.11;65.32;98083.81;4883092;29;20077;-87
2023/10/17 01:17:07;;;;;;;7.83;2.67;;;;;;;6.78;64.95;98049.78;4885251;29;20056;-93
2023/10/17 01:19:35;;;;;;;5.68;2.30;;;;;;;6.86;64.97;98066.41;4881805;29;20048;-92
2023/10/17 01:22:03;;;;;;;6.13;2.13;;;;;;;6.82;65.31;98077.91;4868887;29;20048;-91
2023/10/17 01:24:29;;;;;;;9.05;2.63;;;;;;;6.95;65.55;98092.44;4885647;29;20092;-92
2023/10/17 01:26:56;;;;;;;9.55;2.58;;;;;;;6.97;65.59;98103.00;4882101;29;20472;-87
2023/10/17 01:29:23;;;;;;;5.60;2.80;;;;;;;6.77;65.38;98069.91;4881893;29;20151;-91
2023/10/17 01:31:50;;;;;;;8.77;2.58;;;;;;;6.88;65.32;98094.84;4883382;29;20049;-87
2023/10/17 01:34:18;;;;;;;4.78;2.58;;;;;;;6.81;66.24;98100.75;4851170;29;20049;-86
2023/10/17 01:36:44;;;;;;;;;;;;;;;6.71;66.18;98109.19;4882082;29;20404;-86
2023/10/17 01:39:10;;;;;;;10.90;2.90;;;;;;;6.60;66.20;98105.19;4882459;29;19972;-88
2023/10/17 01:41:48;;;;;;;6.97;2.93;;;;;;;6.55;66.20;98102.59;4881372;29;20542;-87
2023/10/17 01:44:14;;;;;;;5.07;2.83;;;;;;;6.58;66.83;98110.13;4884039;29;20293;-93
2023/10/17 01:46:43;;;;;;;7.60;2.38;;;;;;;6.42;66.95;98111.69;4883698;29;20057;-86
2023/10/17 01:49:13;;;;;;;8.35;2.90;;;;;;;6.21;66.98;98082.41;4885964;29;20101;-87
2023/10/17 01:51:49;;;;;;;11.77;2.63;;;;;;;6.29;66.64;98088.97;4883236;29;20045;-88
2023/10/17 01:54:16;;;;;;;5.55;2.60;;;;;;;6.30;66.75;98080.53;4850745;29;20101;-88
2023/10/17 01:56:49;;;;;;;7.32;2.38;;;;;;;6.14;66.34;98068.50;4883474;29;20427;-87
2023/10/17 01:59:25;;;;;;;7.20;2.75;;;;;;;6.02;66.97;98065.56;4871194;29;20048;-86
2023/10/17 02:01:56;;;;;;;5.50;2.60;;;;;;;6.05;67.06;98079.31;4864947;29;20045;-86
2023/10/17 02:04:24;;;;;;;8.10;2.55;;;;;;;6.23;67.49;98115.47;4881422;29;20047;-87
2023/10/17 02:06:51;;;;;;;3.90;2.38;;;;;;;6.00;67.73;98103.88;4882562;29;20068;-89
2023/10/17 02:09:24;;;;;;;8.45;2.75;;;;;;;6.00;68.01;98100.38;4888521;29;20085;-88
2023/10/17 02:11:55;;;;;;;5.30;2.22;;;;;;;5.73;67.93;98083.16;4893753;29;20045;-88
2023/10/17 02:14:22;;;;;;;6.03;2.30;;;;;;;6.10;67.71;98119.09;4879976;29;20449;-87
2023/10/17 02:16:49;;;;;;;6.20;2.25;;;;;;;5.98;68.08;98118.88;4883579;29;20068;-88
2023/10/17 02:19:19;;;;;;;5.10;2.22;;;;;;;5.91;68.28;98080.50;4867474;29;20061;-87
2023/10/17 02:22:09;;;;;;;3.63;2.00;;;;;;;6.17;67.64;98110.50;4867834;29;20044;-88
2023/10/17 02:24:37;;;;;;;4.53;2.15;;;;;;;6.14;68.03;98111.91;4880960;29;20044;-87
2023/10/17 02:27:09;;;;;;;;;;;;;;;6.08;67.79;98107.72;4880325;29;20052;-86
2023/10/17 02:29:46;;;;;;;5.32;2.00;;;;;;;5.87;68.01;98083.06;4884215;29;19931;-86
2023/10/17 02:32:12;;;;;;;4.13;1.70;;;;;;;5.93;68.29;98116.28;4883835;29;20132;-89
2023/10/17 02:34:40;;;;;;;8.18;2.08;;;;;;;6.00;68.28;98112.03;4886031;29;20049;-86
2023/10/17 02:37:11;;;;;;;5.25;2.10;;;;;;;5.97;68.09;98082.00;4881983;29;20049;-87
2023/10/17 02:39:38;;;;;;;6.15;1.95;;;;;;;5.73;68.37;98042.47;4883769;29;20118;-86
2023/10/17 02:42:08;;;;;;;4.88;2.05;;;;;;;5.89;68.55;98080.81;4867491;29;20048;-88
2023/10/17 02:44:39;;;;;;;7.10;1.98;;;;;;;5.92;68.01;98088.31;4883597;29;20037;-88
2023/10/17 02:47:13;;;;;;;4.25;1.98;;;;;;;5.96;68.41;98094.78;4882877;29;20064;-86
2023/10/17 02:49:43;;;;;;;3.78;2.05;;;;;;;5.56;68.64;98050.50;4865847;29;20060;-86
2023/10/17 02:52:09;;;;;;;6.20;2.28;;;;;;;5.65;68.74;98068.41;4865906;29;20045;-87
2023/10/17 02:57:21;;;;;;;6.68;1.92;;;;;;;5.70;69.32;98104.66;4884274;29;20411;-88
2023/10/17 02:59:47;;;;;;;8.10;2.08;;;;;;;5.58;69.50;98086.25;4886211;29;20060;-88
2023/10/17 03:02:14;;;;;;;4.90;1.80;;;;;;;5.46;69.78;98077.88;4866474;29;20041;-90
2023/10/17 03:04:43;;;;;;;6.20;1.85;;;;;;;5.50;70.02;98106.78;4881347;29;20049;-87
2023/10/17 03:07:11;;;;;;;3.92;1.90;;;;;;;5.44;70.22;98099.88;4851145;29;20064;-87
2023/10/17 03:09:39;;;;;;;2.45;1.55;;;;;;;5.42;69.96;98115.63;4837052;29;20495;-88
2023/10/17 03:17:11;;;;;;;3.50;1.70;;;;;;;5.33;70.93;98126.44;4881173;29;20116;-86
2023/10/17 03:19:39;;;;;;;5.60;1.97;;;;;;;4.89;71.17;98062.97;4881839;29;20149;-87
2023/10/17 03:22:24;;;;;;;4.80;1.90;;;;;;;5.12;71.07;98090.06;4871087;29;20290;-93
2023/10/17 03:24:59;;;;;;;3.75;1.60;;;;;;;5.04;70.72;98090.81;4852090;29;20041;-87
2023/10/17 03:27:37;;;;;;;6.55;2.00;;;;;;;5.13;70.84;98119.56;4871804;29;20045;-88
2023/10/17 03:30:10;;;;;;;5.45;2.00;;;;;;;5.18;71.07;98118.66;4889956;29;20044;-87
2023/10/17 03:33:26;;;;;;;6.10;2.30;;;;;;;5.15;71.10;98124.69;4886189;29;20106;-88
2023/10/17 03:35:30;;;;;;;7.97;2.10;;;;;;;5.11;70.87;98121.78;4862357;29;20057;-89
2023/10/17 03:37:56;;;;;;;3.50;1.95;;;;;;;5.18;70.83;98122.16;4877367;29;20049;-86
2023/10/17 03:40:52;;;;;;;7.28;2.30;;;;;;;4.98;71.30;98095.53;4886495;29;20045;-88
2023/10/17 03:43:21;;;;;;;5.25;2.40;;;;;;;4.88;71.60;98098.47;4854810;29;20045;-86
2023/10/17 03:45:57;;;;;;;5.13;2.03;;;;;;;5.06;71.42;98110.25;4884811;29;20104;-93
2023/10/17 03:48:24;;;;;;;5.05;2.00;;;;;;;4.83;71.44;98093.16;4888872;29;20049;-86
2023/10/17 03:51:08;;;;;;;7.40;1.98;;;;;;;4.55;72.17;98082.41;4886574;29;20124;-88
2023/10/17 03:53:47;;;;;;;3.50;2.22;;;;;;;4.90;71.76;98140.41;4886121;29;20052;-88
2023/10/17 03:57:02;;;;;;;4.15;2.30;;;;;;;4.40;72.10;98080.03;4887924;29;20049;-86
2023/10/17 03:59:31;;;;;;;8.45;2.13;;;;;;;4.52;72.33;98107.38;4881884;29;20534;-90
2023/10/17 04:01:49;;;;;;;7.45;1.80;;;;;;;4.70;72.45;98135.41;4873999;29;20051;-93
2023/10/17 04:04:18;;;;;;;7.03;2.15;;;;;;;4.72;72.82;98160.28;4861223;29;20045;-90
2023/10/17 04:06:48;;;;;;;4.30;2.22;;;;;;;4.48;73.12;98120.72;4862388;29;20056;-88
2023/10/17 04:09:21;;;;;;;9.25;3.45;;;;;;;4.44;72.97;98106.19;4875514;29;20072;-87
2023/10/17 04:12:03;;;;;;;5.45;2.30;;;;;;;4.80;72.70;98153.34;4893511;29;20136;-86
2023/10/17 04:14:34;;;;;;;4.97;2.58;;;;;;;4.85;72.67;98155.94;4862502;29;20068;-87
2023/10/17 04:17:02;;;;;;;8.05;2.63;;;;;;;4.45;72.62;98113.19;4895717;29;20076;-89
2023/10/17 04:19:33;;;;;;;9.88;2.60;;;;;;;4.67;72.81;98158.50;4856956;29;20118;-87
2023/10/17 04:24:34;;;;;;;7.47;2.83;;;;;;;4.62;73.26;98177.53;4888136;29;20029;-87
2023/10/17 04:33:31;;;;;;;3.40;2.08;;;;;;;4.60;73.69;98187.03;4875902;29;20071;-88
2023/10/17 04:35:59;;;;;;;10.35;2.55;;;;;;;4.54;73.93;98169.31;4887977;29;20041;-89
2023/10/17 04:43:49;;;;;;;5.03;2.08;;;;;;;4.65;72.74;98192.38;4865328;29;20060;-85
2023/10/17 04:46:16;;;;;;;5.28;2.25;;;;;;;4.52;73.03;98183.16;4853701;29;20056;-86
2023/10/17 04:48:47;;;;;;;8.35;2.42;;;;;;;4.34;73.02;98154.25;4864338;29;20400;-90
2023/10/17 04:53:50;;;;;;;16.40;2.47;;;;;;;4.53;73.36;98202.88;4873231;29;20047;-88
2023/10/17 04:56:24;;;;;;;4.47;2.10;;;;;;;4.33;73.16;98193.25;4888893;29;20056;-87
2023/10/17 04:58:56;;;;;;;3.85;1.95;;;;;;;4.08;73.44;98156.69;4862072;29;20045;-88
2023/10/17 05:04:18;;;;;;;3.38;1.88;;;;;;;4.14;73.51;98180.63;4859918;29;20046;-87
2023/10/17 06:18:26;;;;;;;10.70;2.67;;;;;;;4.74;70.76;98250.13;4857935;29;20060;-88
2023/10/17 06:34:38;;;;;;;3.65;2.28;;;;;;;5.13;70.41;98278.56;4894463;29;20041;-85
2023/10/17 06:37:07;;;;;;;;;;;;;;;5.10;70.41;98284.59;4883968;29;20492;-84
2023/10/17 06:39:45;;;;;;;3.17;1.70;;;;;;;5.05;69.72;98266.53;4886127;29;20425;-88
2023/10/17 06:45:18;;;;;;;7.82;2.22;;;;;;;5.05;70.37;98290.13;4868016;29;20506;-88
2023/10/17 06:47:42;;;;;;;4.65;2.25;;;;;;;5.03;70.86;98290.41;4888334;29;20064;-86
2023/10/17 06:55:38;;;;;;;3.08;1.83;;;;;;;4.71;70.24;98256.13;4891528;29;20049;-87
2023/10/17 06:58:21;;;;;;;9.80;2.45;;;;;;;4.79;70.95;98268.16;4875505;29;20558;-85
2023/10/17 07:00:50;;;;;;;8.45;2.65;;;;;;;4.74;70.90;98241.19;4889508;29;20053;-86
2023/10/17 07:03:34;;;;;;;7.47;2.70;;;;;;;5.05;69.99;98266.53;4860616;29;20047;-88
2023/10/17 07:06:38;;;;;;;3.85;2.25;;;;;;;5.23;69.96;98291.94;4874001;29;20191;-87
2023/10/17 07:08:53;;;;;;;7.78;3.33;;;;;;;4.92;69.82;98238.38;4883087;29;20049;-86
2023/10/17 07:14:22;;;;;;;13.57;4.15;;;;;;;5.10;69.26;98274.56;4876634;29;20089;-88
2023/10/17 07:17:43;;;;;;;10.05;3.13;;;;;;;4.68;69.34;98202.59;4869686;29;20105;-89
2023/10/17 07:22:08;;;;;;;8.30;3.78;;;;;;;5.17;69.26;98296.63;4870740;29;20057;-87
2023/10/17 07:24:36;;;;;;;4.10;2.63;;;;;;;4.93;69.54;98275.19;4892264;29;20064;-89
2023/10/17 07:27:11;;;;;;;5.78;2.40;;;;;;;4.88;69.27;98258.22;4892745;29;20029;-87
2023/10/17 07:29:45;;;;;;;4.95;2.47;;;;;;;5.27;69.63;98305.66;4855452;29;20044;-86
2023/10/17 07:32:16;;;;;;;4.38;2.72;;;;;;;5.42;68.83;98314.25;4842386;29;20049;-86
2023/10/17 07:34:43;;;;;;;11.18;2.58;;;;;;;5.18;68.40;98267.63;4851093;29;20124;-87
2023/10/17 07:37:22;;;;;;;9.10;3.33;;;;;;;5.50;67.91;98288.38;4849221;29;20060;-87
2023/10/17 07:42:46;;;;;;;5.63;2.67;;;;;;;5.48;69.20;98311.44;4854384;29;20041;-89
2023/10/17 07:45:15;;;;;;;5.00;2.05;;;;;;;5.28;69.34;98312.69;4856659;29;20049;-90
2023/10/17 07:47:43;;;;;;;3.33;1.80;;;;;;;5.00;68.42;98253.13;4868224;29;20064;-87
2023/10/17 07:50:12;;;;;;;3.13;2.00;;;;;;;5.50;69.04;98322.81;4865344;29;20041;-89
2023/10/17 07:52:50;;;;;;;3.17;1.70;;;;;;;5.24;68.25;98303.56;4851011;29;20083;-91
2023/10/17 07:58:06;;;;;;;6.22;1.70;;;;;;;5.28;69.01;98345.19;4852253;29;20053;-87
2023/10/17 08:00:36;;;;;;;2.15;1.60;;;;;;;5.23;69.51;98326.31;4850617;29;20025;-92
2023/10/17 08:03:18;;;;;;;16.02;2.10;;;;;;;4.91;69.32;98288.22;4872984;29;20116;-84
2023/10/17 08:08:42;;;;;;;3.28;1.67;;;;;;;5.30;70.27;98338.38;4884742;29;20052;-87
2023/10/17 08:11:31;;;;;;;3.78;1.65;;;;;;;4.90;68.94;98294.75;4869462;29;20060;-87
2023/10/17 08:14:08;;;;;;;7.55;1.90;;;;;;;4.74;69.60;98309.69;4856217;29;20056;-91
2023/10/17 08:16:39;;;;;;;6.65;1.92;;;;;;;4.89;69.89;98328.31;4868248;29;20049;-90
2023/10/17 08:19:15;;;;;;;4.78;1.80;;;;;;;4.99;69.39;98327.31;4867161;29;20041;-86
2023/10/17 08:21:59;;;;;;;3.20;1.53;;;;;;;5.06;67.86;98346.69;4870655;29;20040;-85
2023/10/17 08:24:26;;;;;;;8.77;2.00;;;;;;;5.19;67.23;98358.63;4896229;29;20048;-90
2023/10/17 08:27:12;;;;;;;2.13;1.30;;;;;;;4.74;66.59;98309.69;4862299;29;20053;-87
2023/10/17 08:29:48;;;;;;;3.15;1.58;;;;;;;4.67;66.79;98309.28;4872975;29;20530;-90
2023/10/17 08:34:59;;;;;;;4.05;1.55;;;;;;;4.91;65.72;98334.25;4839927;29;20057;-86
2023/10/17 08:37:30;;;;;;;3.35;1.63;;;;;;;5.15;66.27;98368.47;4848257;29;20608;-87
2023/10/17 08:43:19;;;;;;;3.25;1.48;;;;;;;4.92;65.41;98354.81;4830242;29;20080;-91
2023/10/17 08:45:47;;;;;;;2.42;1.52;;;;;;;4.67;66.77;98328.22;4818470;29;20084;-90
2023/10/17 08:48:14;;;;;;;6.07;1.55;;;;;;;4.79;65.45;98330.41;4863652;29;20053;-88
2023/10/17 08:50:41;;;;;;;4.75;1.33;;;;;;;4.92;65.96;98364.84;4864937;29;20547;-87
2023/10/17 08:53:23;;;;;;;5.60;1.55;;;;;;;5.11;66.36;98372.88;4846894;29;20050;-89
2023/10/17 08:55:53;;;;;;;1.98;1.45;;;;;;;4.77;65.91;98325.31;4851259;29;20575;-91
2023/10/17 08:58:33;;;;;;;7.55;2.33;;;;;;;4.98;66.59;98354.72;4845285;29;20086;-90
2023/10/17 09:01:16;;;;;;;2.95;1.70;;;;;;;5.05;67.21;98336.97;4850179;29;20026;-87
2023/10/17 09:03:46;;;;;;;2.80;1.60;;;;;;;4.86;65.94;98269.34;4837059;29;20094;-88
2023/10/17 09:08:51;;;;;;;5.20;2.40;;;;;;;5.77;66.20;98384.31;4845324;29;20054;-88
2023/10/17 09:11:31;;;;;;;7.15;2.20;;;;;;;5.70;66.06;98346.75;4831046;29;20054;-89
2023/10/17 09:17:10;;;;;;;3.55;1.80;;;;;;;5.86;65.61;98380.56;4814425;29;20564;-88
2023/10/17 09:19:51;;;;;;;2.70;1.80;;;;;;;5.40;65.98;98294.00;4846327;29;20432;-90
2023/10/17 09:22:44;;;;;;;2.97;1.85;;;;;;;5.67;65.70;98339.22;4872124;29;20072;-89
2023/10/17 09:25:16;;;;;;;3.92;2.03;;;;;;;5.88;65.88;98366.69;4862773;29;20224;-89
2023/10/17 09:27:49;;;;;;;4.57;1.90;;;;;;;5.56;64.92;98298.00;4882171;29;20644;-89
2023/10/17 09:30:17;;;;;;;2.65;2.08;;;;;;;5.95;64.86;98347.31;4864627;29;20064;-88
2023/10/17 09:32:51;;;;;;;2.95;1.63;;;;;;;5.65;62.68;98308.91;4890513;29;20047;-90
2023/10/17 09:35:18;;;;;;;3.40;2.08;;;;;;;5.66;63.81;98299.66;4867163;29;20125;-89
2023/10/17 09:37:46;;;;;;;5.07;2.35;;;;;;;6.21;64.74;98371.97;4861963;29;20037;-89
2023/10/17 09:40:13;;;;;;;;;;;;;;;6.19;64.14;98385.00;4863041;29;20037;-89
2023/10/17 09:42:46;;;;;;;;;;;;;;;6.10;63.24;98374.91;4875936;29;20676;-89
2023/10/17 09:45:15;;;;;;;4.65;2.20;;;;;;;5.85;63.31;98334.75;4877643;29;19924;-88
2023/10/17 09:47:47;;;;;;;3.47;1.70;;;;;;;6.10;64.48;98380.34;4850294;29;20057;-88
2023/10/17 09:50:17;;;;;;;3.05;1.70;;;;;;;5.95;64.46;98386.09;4879646;29;20041;-88
2023/10/17 09:52:45;;;;;;;8.93;1.90;;;;;;;5.94;66.18;98380.97;4845268;29;20512;-88
2023/10/17 09:55:15;;;;;;;4.95;1.67;;;;;;;6.04;64.75;98378.84;4875119;29;20091;-88
2023/10/17 09:57:54;;;;;;;2.50;1.70;;;;;;;5.67;65.49;98322.16;4876237;29;20053;-86
2023/10/17 10:00:30;;;;;;;4.45;2.20;;;;;;;5.99;67.30;98381.66;4877786;29;20056;-89
2023/10/17 10:03:03;;;;;;;7.90;1.70;;;;;;;5.96;67.35;98365.19;4883555;29;20048;-88
2023/10/17 10:05:30;;;;;;;3.55;1.50;;;;;;;5.94;65.97;98334.88;4871636;29;20315;-87
2023/10/17 10:08:03;;;;;;;3.03;1.50;;;;;;;6.20;65.66;98378.50;4876949;29;20602;-87
2023/10/17 10:10:51;;;;;;;1.92;1.55;;;;;;;5.98;65.57;98342.09;4876385;29;20080;-85
2023/10/17 10:13:21;;;;;;;2.50;1.63;;;;;;;6.11;64.89;98373.78;4877337;29;20071;-87
2023/10/17 10:15:54;;;;;;;2.85;1.52;;;;;;;6.03;63.59;98333.84;4877455;29;20048;-86
2023/10/17 10:18:38;;;;;;;3.25;1.48;;;;;;;6.44;62.80;98370.84;4874104;29;20037;-87
2023/10/17 10:21:07;;;;;;;3.33;1.52;;;;;;;6.50;62.07;98369.63;4877107;29;20097;-86
2023/10/17 10:23:41;;;;;;;5.85;1.70;;;;;;;6.26;62.51;98337.38;4879491;29;20035;-85
2023/10/17 10:26:28;;;;;;;3.83;2.00;;;;;;;6.64;63.29;98374.19;4837023;29;20423;-88
2023/10/17 10:29:25;;;;;;;3.75;1.95;;;;;;;6.02;62.65;98277.97;4875725;29;20044;-88
2023/10/17 10:31:54;;;;;;;7.25;2.10;;;;;;;6.31;61.50;98288.38;4873340;29;20037;-89
2023/10/17 10:34:22;;;;;;;3.22;1.65;;;;;;;6.64;61.20;98325.31;4869848;29;20033;-89
2023/10/17 10:36:50;;;;;;;3.20;1.40;;;;;;;6.43;61.47;98284.31;4862659;29;20045;-90
2023/10/17 10:39:18;;;;;;;4.70;1.60;;;;;;;6.62;60.88;98327.50;4846502;29;20158;-91
2023/10/17 10:41:59;;;;;;;6.55;1.98;;;;;;;6.52;61.87;98329.41;4875459;29;20097;-90
2023/10/17 10:44:30;;;;;;;4.20;1.70;;;;;;;6.54;61.85;98315.50;4850671;29;20049;-90
2023/10/17 10:47:06;;;;;;;3.15;1.98;;;;;;;6.71;61.49;98345.47;4865736;29;20109;-88
2023/10/17 10:49:32;;;;;;;4.07;2.10;;;;;;;6.56;61.70;98324.16;4867220;29;20207;-88
2023/10/17 10:52:01;;;;;;;2.70;1.50;;;;;;;6.42;61.57;98317.97;4841612;29;20045;-90
2023/10/17 10:54:49;;;;;;;3.22;1.80;;;;;;;6.82;61.52;98376.69;4837349;29;20116;-87
2023/10/17 10:57:17;;;;;;;3.03;1.90;;;;;;;6.55;62.29;98336.09;4874966;29;20049;-89
2023/10/17 10:59:49;;;;;;;4.20;1.58;;;;;;;6.48;62.70;98328.38;4845103;29;20041;-87
2023/10/17 11:02:20;;;;;;;2.42;1.58;;;;;;;6.73;63.24;98364.97;4842753;29;20073;-88
2023/10/17 11:04:49;;;;;;;5.32;1.75;;;;;;;6.62;64.10;98363.59;4849933;29;20103;-87
2023/10/17 11:07:23;;;;;;;7.38;3.22;;;;;;;6.77;65.13;98349.66;4869811;29;20037;-86
2023/10/17 11:10:06;;;;;;;9.57;4.00;;;;;;;6.88;64.69;98360.25;4858542;29;20094;-86
2023/10/17 11:12:35;;;;;;;8.07;3.40;;;;;;;6.81;64.71;98349.81;4867793;29;20045;-88
2023/10/17 11:15:11;;;;;;;4.63;2.20;;;;;;;6.82;65.26;98376.69;4829777;29;20057;-87
2023/10/17 11:17:39;;;;;;;5.03;2.23;;;;;;;6.35;64.70;98304.84;4860110;29;20128;-88
2023/10/17 11:20:20;;;;;;;5.30;2.80;;;;;;;6.79;65.03;98355.59;4856782;29;20305;-86
2023/10/17 11:22:46;;;;;;;5.97;2.58;;;;;;;6.85;64.34;98369.81;4839689;29;20582;-88
2023/10/17 11:25:36;;;;;;;4.47;2.75;;;;;;;6.60;64.16;98335.97;4867903;29;20565;-88
2023/10/17 11:28:07;;;;;;;5.45;1.80;;;;;;;6.92;63.84;98361.22;4847102;29;20076;-88
2023/10/17 11:30:40;;;;;;;5.47;1.95;;;;;;;6.73;63.75;98332.38;4859515;29;20096;-86
2023/10/17 11:33:11;;;;;;;5.85;2.58;;;;;;;6.87;63.99;98337.72;4850969;29;20048;-87
2023/10/17 11:35:50;;;;;;;5.88;2.40;;;;;;;7.27;63.21;98370.34;4845973;29;20053;-87
2023/10/17 11:38:37;;;;;;;3.88;2.22;;;;;;;6.70;62.85;98296.91;4854259;29;20108;-85
2023/10/17 11:41:05;;;;;;;10.65;2.85;;;;;;;7.07;63.08;98318.16;4857109;29;20041;-86
2023/10/17 11:43:35;;;;;;;4.05;2.00;;;;;;;7.05;61.72;98328.53;4873010;29;20586;-88
2023/10/17 11:46:12;;;;;;;19.17;2.90;;;;;;;6.98;63.07;98330.88;4847968;29;20476;-88
2023/10/17 11:48:44;;;;;;;6.30;2.42;;;;;;;6.72;63.51;98297.38;4874765;29;20056;-87
2023/10/17 11:51:13;;;;;;;10.65;4.43;;;;;;;7.15;64.71;98343.78;4880431;29;20052;-85
2023/10/17 11:54:08;;;;;;;6.03;1.80;;;;;;;7.03;64.00;98355.22;4887294;29;20048;-87
2023/10/17 11:56:37;;;;;;;5.40;2.05;;;;;;;6.74;64.88;98325.03;4862354;29;20052;-86
2023/10/17 11:59:13;;;;;;;2.55;1.70;;;;;;;6.63;64.95;98315.56;4855006;29;20053;-87
2023/10/17 12:01:41;;;;;;;3.40;1.90;;;;;;;6.52;65.39;98312.28;4826174;29;20053;-86
2023/10/17 12:04:08;;;;;;;8.30;1.58;;;;;;;6.54;65.82;98340.72;4861084;29;20065;-87
2023/10/17 12:06:40;;;;;;;3.55;1.70;;;;;;;6.23;66.01;98296.47;4860106;29;20038;-86
2023/10/17 12:09:22;;;;;;;8.13;3.80;;;;;;;6.64;67.09;98360.59;4868662;29;20575;-88
2023/10/17 12:11:54;;;;;;;8.27;2.35;;;;;;;6.06;66.93;98256.44;4862561;29;20053;-88
2023/10/17 12:14:23;;;;;;;5.10;2.30;;;;;;;6.79;68.01;98355.59;4860613;29;20041;-87
2023/10/17 12:17:00;;;;;;;6.13;2.10;;;;;;;6.43;68.15;98316.88;4822716;29;20131;-88
2023/10/17 12:19:27;;;;;;;7.47;2.28;;;;;;;6.54;69.09;98338.03;4840869;29;20033;-89
2023/10/17 12:21:55;;;;;;;4.75;1.88;;;;;;;6.14;67.98;98260.34;4870874;29;20045;-89
2023/10/17 12:24:40;;;;;;;;;;;;;;;6.73;69.09;98356.81;4856943;29;20132;-88
2023/10/17 12:27:11;;;;;;;3.10;1.75;;;;;;;6.13;68.96;98302.94;4882330;29;19924;-88
2023/10/17 12:29:44;;;;;;;3.92;1.88;;;;;;;6.58;70.33;98370.78;4849597;29;20969;-88
2023/10/17 12:32:11;;;;;;;3.38;1.80;;;;;;;6.29;69.87;98347.59;4824182;29;20076;-88
2023/10/17 12:34:40;;;;;;;3.90;1.77;;;;;;;5.95;70.04;98295.78;4836118;29;20064;-88
2023/10/17 12:37:10;;;;;;;5.03;2.25;;;;;;;6.44;71.26;98375.47;4847144;29;20100;-88
2023/10/17 12:39:40;;;;;;;6.00;2.00;;;;;;;6.43;70.85;98366.53;4857154;29;20052;-87
2023/10/17 12:42:09;;;;;;;6.28;1.65;;;;;;;6.47;70.16;98358.56;4854673;29;20139;-89
2023/10/17 12:44:36;;;;;;;5.40;2.08;;;;;;;5.65;70.55;98258.19;4852370;29;20051;-88
2023/10/17 12:47:05;;;;;;;4.38;2.00;;;;;;;5.97;71.76;98299.78;4850353;29;20057;-88
2023/10/17 12:49:31;;;;;;;5.07;1.90;;;;;;;6.24;71.56;98328.72;4852902;29;20041;-88
2023/10/17 12:52:00;;;;;;;9.07;2.50;;;;;;;6.13;72.10;98327.38;4849433;29;20056;-86
2023/10/17 12:54:28;;;;;;;4.22;2.10;;;;;;;5.98;72.18;98323.09;4853265;29;20052;-88
2023/10/17 12:56:54;;;;;;;7.70;3.55;;;;;;;5.98;73.17;98320.38;4861573;29;20239;-86
2023/10/17 12:59:21;;;;;;;11.93;4.75;;;;;;;6.21;73.78;98344.81;4858134;29;20251;-91
2023/10/17 13:01:51;;;;;;;6.30;3.38;;;;;;;5.87;72.87;98300.00;4819740;29;20120;-85
2023/10/17 13:04:23;;;;;;;5.95;3.05;;;;;;;6.19;73.79;98347.03;4861830;29;20122;-85
2023/10/17 13:06:53;;;;;;;15.48;2.42;;;;;;;5.92;73.93;98350.59;4837265;29;20052;-88
2023/10/17 13:09:32;;;;;;;6.05;2.22;;;;;;;6.12;75.31;98369.16;4898309;29;20037;-86
2023/10/17 13:11:59;;;;;;;5.82;1.92;;;;;;;5.64;76.05;98323.56;4864832;29;20060;-85
2023/10/17 13:14:25;;;;;;;;;;;;;;;5.94;75.85;98389.91;4863705;29;20080;-86
2023/10/17 13:16:52;;;;;;;4.97;2.40;;;;;;;5.94;75.63;98379.06;4865360;29;19903;-88
2023/10/17 13:19:22;;;;;;;3.20;2.17;;;;;;;5.82;75.79;98359.78;4869365;29;20049;-86
2023/10/17 13:21:49;;;;;;;4.07;2.45;;;;;;;5.91;76.23;98363.38;4877830;29;20040;-87
2023/10/17 13:24:18;;;;;;;3.38;2.08;;;;;;;5.93;76.52;98382.06;4964081;23;20068;-89
2023/10/17 13:26:46;;;;;;;5.75;2.20;;;;;;;5.51;75.23;98318.97;4853992;29;20045;-86
2023/10/17 13:29:12;;;;;;;6.15;1.98;;;;;;;5.80;76.18;98367.44;4882761;29;20069;-86
2023/10/17 13:31:48;;;;;;;7.55;2.58;;;;;;;5.96;75.94;98386.88;4899858;29;20071;-85
2023/10/17 13:34:27;;;;;;;3.95;1.92;;;;;;;5.61;75.38;98348.56;4874242;29;20104;-86
2023/10/17 13:36:55;;;;;;;2.53;1.77;;;;;;;5.75;76.43;98384.59;4886429;29;20048;-84
2023/10/17 13:39:22;;;;;;;3.30;1.77;;;;;;;5.51;76.79;98368.56;4916112;29;20079;-86
2023/10/17 13:41:48;;;;;;;;;;;;;;;5.78;76.96;98392.13;4900903;29;20055;-84
2023/10/17 13:44:15;;;;;;;3.47;1.70;;;;;;;5.47;76.71;98345.09;4898105;29;19924;-84
2023/10/17 13:46:48;;;;;;;4.22;1.77;;;;;;;5.72;77.48;98393.34;4901619;29;20052;-92
2023/10/17 13:49:15;;;;;;;3.85;1.98;;;;;;;5.69;77.23;98398.56;4911810;29;20044;-85
2023/10/17 13:51:46;;;;;;;;;;;;;;;5.64;76.47;98397.56;4879355;29;20048;-91
2023/10/17 13:54:16;;;;;;;3.63;1.83;;;;;;;5.26;77.18;98350.09;4874976;29;19951;-85
2023/10/17 13:56:44;;;;;;;7.57;2.67;;;;;;;5.50;77.36;98366.97;4902944;29;20115;-86
2023/10/17 13:59:11;;;;;;;6.43;2.30;;;;;;;5.53;77.61;98366.38;4890129;29;20514;-90
2023/10/17 14:01:46;;;;;;;6.90;3.20;;;;;;;5.35;77.90;98349.09;4875591;29;20419;-86
2023/10/17 14:04:17;;;;;;;9.45;2.60;;;;;;;5.54;77.71;98381.50;4885067;29;20040;-84
2023/10/17 14:06:48;;;;;;;8.57;3.53;;;;;;;5.60;77.50;98390.34;4894126;29;20044;-87
2023/10/17 14:09:31;;;;;;;5.28;2.17;;;;;;;5.74;77.43;98404.69;4879734;29;20098;-86
2023/10/17 14:11:58;;;;;;;2.75;1.85;;;;;;;5.46;75.99;98373.28;4846034;29;20061;-86
2023/10/17 14:14:26;;;;;;;6.10;1.90;;;;;;;5.78;75.84;98423.88;4872915;29;20040;-86
2023/10/17 14:16:55;;;;;;;10.40;2.13;;;;;;;5.73;75.56;98411.22;4888065;29;20072;-85
2023/10/17 14:22:08;;;;;;;3.15;1.88;;;;;;;5.50;75.50;98387.84;4902436;29;20047;-92
2023/10/17 14:27:21;;;;;;;8.68;2.75;;;;;;;5.87;75.76;98431.00;4913721;29;20135;-87
2023/10/17 14:29:49;;;;;;;4.15;2.15;;;;;;;5.82;75.77;98439.22;4904223;29;20033;-85
2023/10/17 14:32:17;;;;;;;5.50;2.20;;;;;;;5.46;75.79;98376.00;4889287;29;20089;-85
2023/10/17 14:34:44;;;;;;;3.78;1.95;;;;;;;5.77;75.98;98419.56;4889230;29;20047;-94
2023/10/17 14:37:10;;;;;;;4.95;2.13;;;;;;;5.85;76.06;98445.94;4855031;29;20052;-85
2023/10/17 14:39:42;;;;;;;5.70;1.90;;;;;;;5.44;76.36;98380.94;4886384;29;20049;-91
2023/10/17 14:42:13;;;;;;;3.33;1.63;;;;;;;5.44;76.24;98386.34;4888681;29;20044;-86
2023/10/17 14:44:45;;;;;;;3.28;1.90;;;;;;;5.71;76.82;98435.13;4904767;29;20055;-85
2023/10/17 14:47:18;;;;;;;3.30;1.60;;;;;;;5.61;75.95;98427.19;4869787;29;20075;-86